sensor_id;sensor_type;location;lat;lon;timestamp;P1;durP1;ratioP1;P2;durP2;ratioP2
38529;SDS011;24301;54.332;48.386;2023-10-31T00:01:24;7.50;;;4.87;;
38529;SDS011;24301;54.332;48.386;2023-10-31T00:03:50;7.33;;;5.30;;
38529;SDS011;24301;54.332;48.386;2023-10-31T00:06:16;7.97;;;6.23;;
38529;SDS011;24301;54.332;48.386;2023-10-31T00:08:41;8.40;;;5.03;;
38529;SDS011;24301;54.332;48.386;2023-10-31T00:11:07;7.33;;;4.73;;
38529;SDS011;24301;54.332;48.386;2023-10-31T00:13:34;7.53;;;5.03;;
38529;SDS011;24301;54.332;48.386;2023-10-31T00:15:59;10.33;;;6.13;;
38529;SDS011;24301;54.332;48.386;2023-10-31T00:18:25;9.17;;;5.77;;
38529;SDS011;24301;54.332;48.386;2023-10-31T00:20:51;7.40;;;5.53;;
38529;SDS011;24301;54.332;48.386;2023-10-31T00:23:17;9.40;;;6.00;;
38529;SDS011;24301;54.332;48.386;2023-10-31T00:25:43;8.73;;;6.13;;
38529;SDS011;24301;54.332;48.386;2023-10-31T00:28:09;8.67;;;5.50;;
38529;SDS011;24301;54.332;48.386;2023-10-31T00:30:35;6.40;;;5.13;;
38529;SDS011;24301;54.332;48.386;2023-10-31T00:33:02;7.63;;;5.70;;
38529;SDS011;24301;54.332;48.386;2023-10-31T00:35:27;7.37;;;5.30;;
38529;SDS011;24301;54.332;48.386;2023-10-31T00:37:53;8.03;;;5.87;;
38529;SDS011;24301;54.332;48.386;2023-10-31T00:40:19;5.67;;;4.43;;
38529;SDS011;24301;54.332;48.386;2023-10-31T00:42:45;6.00;;;5.33;;
38529;SDS011;24301;54.332;48.386;2023-10-31T00:45:13;8.17;;;5.53;;
38529;SDS011;24301;54.332;48.386;2023-10-31T00:47:40;7.17;;;5.80;;
38529;SDS011;24301;54.332;48.386;2023-10-31T00:50:07;7.10;;;5.10;;
38529;SDS011;24301;54.332;48.386;2023-10-31T00:52:34;8.13;;;5.40;;
38529;SDS011;24301;54.332;48.386;2023-10-31T00:55:00;7.63;;;5.50;;
38529;SDS011;24301;54.332;48.386;2023-10-31T00:57:27;7.93;;;5.50;;
38529;SDS011;24301;54.332;48.386;2023-10-31T00:59:53;6.87;;;5.47;;
38529;SDS011;24301;54.332;48.386;2023-10-31T01:02:19;8.13;;;6.23;;
38529;SDS011;24301;54.332;48.386;2023-10-31T01:04:45;7.27;;;5.40;;
38529;SDS011;24301;54.332;48.386;2023-10-31T01:07:11;8.07;;;5.73;;
38529;SDS011;24301;54.332;48.386;2023-10-31T01:09:40;6.30;;;4.70;;
38529;SDS011;24301;54.332;48.386;2023-10-31T01:12:06;7.13;;;4.70;;
38529;SDS011;24301;54.332;48.386;2023-10-31T01:14:32;7.37;;;5.77;;
38529;SDS011;24301;54.332;48.386;2023-10-31T01:16:58;9.73;;;5.80;;
38529;SDS011;24301;54.332;48.386;2023-10-31T01:19:24;9.13;;;5.33;;
38529;SDS011;24301;54.332;48.386;2023-10-31T01:21:50;9.63;;;5.47;;
38529;SDS011;24301;54.332;48.386;2023-10-31T01:24:15;7.37;;;5.10;;
38529;SDS011;24301;54.332;48.386;2023-10-31T01:26:42;9.60;;;5.27;;
38529;SDS011;24301;54.332;48.386;2023-10-31T01:29:08;8.00;;;5.53;;
38529;SDS011;24301;54.332;48.386;2023-10-31T01:31:35;7.40;;;5.30;;
38529;SDS011;24301;54.332;48.386;2023-10-31T01:34:02;9.00;;;5.87;;
38529;SDS011;24301;54.332;48.386;2023-10-31T01:36:28;8.13;;;5.90;;
38529;SDS011;24301;54.332;48.386;2023-10-31T01:38:54;7.67;;;5.33;;
38529;SDS011;24301;54.332;48.386;2023-10-31T01:41:20;9.90;;;5.80;;
38529;SDS011;24301;54.332;48.386;2023-10-31T01:43:46;9.33;;;5.87;;
38529;SDS011;24301;54.332;48.386;2023-10-31T01:46:12;7.17;;;5.20;;
38529;SDS011;24301;54.332;48.386;2023-10-31T01:48:38;7.20;;;5.47;;
38529;SDS011;24301;54.332;48.386;2023-10-31T01:51:05;8.80;;;5.60;;
38529;SDS011;24301;54.332;48.386;2023-10-31T01:53:32;6.77;;;6.03;;
38529;SDS011;24301;54.332;48.386;2023-10-31T01:55:59;8.00;;;5.27;;
38529;SDS011;24301;54.332;48.386;2023-10-31T01:58:36;7.50;;;5.50;;
38529;SDS011;24301;54.332;48.386;2023-10-31T02:03:30;9.17;;;5.57;;
38529;SDS011;24301;54.332;48.386;2023-10-31T02:05:56;7.47;;;5.30;;
38529;SDS011;24301;54.332;48.386;2023-10-31T02:08:23;7.30;;;5.93;;
38529;SDS011;24301;54.332;48.386;2023-10-31T02:10:51;6.83;;;5.20;;
38529;SDS011;24301;54.332;48.386;2023-10-31T02:13:19;7.40;;;4.73;;
38529;SDS011;24301;54.332;48.386;2023-10-31T02:15:46;8.23;;;5.83;;
38529;SDS011;24301;54.332;48.386;2023-10-31T02:18:12;7.97;;;5.87;;
38529;SDS011;24301;54.332;48.386;2023-10-31T02:20:58;9.30;;;6.20;;
38529;SDS011;24301;54.332;48.386;2023-10-31T02:23:26;7.60;;;5.80;;
38529;SDS011;24301;54.332;48.386;2023-10-31T02:25:52;7.23;;;5.80;;
38529;SDS011;24301;54.332;48.386;2023-10-31T02:28:18;8.33;;;5.40;;
38529;SDS011;24301;54.332;48.386;2023-10-31T02:30:44;12.03;;;5.77;;
38529;SDS011;24301;54.332;48.386;2023-10-31T02:33:10;8.17;;;5.80;;
38529;SDS011;24301;54.332;48.386;2023-10-31T02:35:36;9.03;;;5.80;;
38529;SDS011;24301;54.332;48.386;2023-10-31T02:38:03;7.70;;;5.97;;
38529;SDS011;24301;54.332;48.386;2023-10-31T02:40:29;7.80;;;5.80;;
38529;SDS011;24301;54.332;48.386;2023-10-31T02:42:55;7.83;;;5.73;;
38529;SDS011;24301;54.332;48.386;2023-10-31T02:45:21;8.97;;;6.03;;
38529;SDS011;24301;54.332;48.386;2023-10-31T02:47:47;7.67;;;5.73;;
38529;SDS011;24301;54.332;48.386;2023-10-31T02:50:13;7.77;;;5.87;;
38529;SDS011;24301;54.332;48.386;2023-10-31T02:52:39;7.70;;;5.60;;
38529;SDS011;24301;54.332;48.386;2023-10-31T02:55:05;8.00;;;5.73;;
38529;SDS011;24301;54.332;48.386;2023-10-31T02:57:31;7.77;;;6.07;;
38529;SDS011;24301;54.332;48.386;2023-10-31T02:59:57;8.77;;;6.20;;
38529;SDS011;24301;54.332;48.386;2023-10-31T03:02:23;8.73;;;6.70;;
38529;SDS011;24301;54.332;48.386;2023-10-31T03:04:50;8.87;;;5.83;;
38529;SDS011;24301;54.332;48.386;2023-10-31T03:07:16;9.27;;;6.10;;
38529;SDS011;24301;54.332;48.386;2023-10-31T03:09:42;7.07;;;5.67;;
38529;SDS011;24301;54.332;48.386;2023-10-31T03:12:07;8.37;;;5.93;;
38529;SDS011;24301;54.332;48.386;2023-10-31T03:14:33;9.37;;;6.40;;
38529;SDS011;24301;54.332;48.386;2023-10-31T03:16:59;10.90;;;6.50;;
38529;SDS011;24301;54.332;48.386;2023-10-31T03:19:25;7.20;;;5.73;;
38529;SDS011;24301;54.332;48.386;2023-10-31T03:21:52;7.60;;;5.87;;
38529;SDS011;24301;54.332;48.386;2023-10-31T03:24:18;8.40;;;6.20;;
38529;SDS011;24301;54.332;48.386;2023-10-31T03:26:44;8.23;;;5.97;;
38529;SDS011;24301;54.332;48.386;2023-10-31T03:29:10;9.70;;;6.57;;
38529;SDS011;24301;54.332;48.386;2023-10-31T03:31:44;9.33;;;6.90;;
38529;SDS011;24301;54.332;48.386;2023-10-31T03:34:11;9.33;;;7.00;;
38529;SDS011;24301;54.332;48.386;2023-10-31T03:36:37;10.37;;;6.73;;
38529;SDS011;24301;54.332;48.386;2023-10-31T03:39:05;9.03;;;6.90;;
38529;SDS011;24301;54.332;48.386;2023-10-31T03:41:32;9.90;;;6.50;;
38529;SDS011;24301;54.332;48.386;2023-10-31T03:43:58;13.23;;;7.90;;
38529;SDS011;24301;54.332;48.386;2023-10-31T03:46:24;8.93;;;6.67;;
38529;SDS011;24301;54.332;48.386;2023-10-31T03:48:50;9.13;;;7.13;;
38529;SDS011;24301;54.332;48.386;2023-10-31T03:51:16;8.27;;;6.33;;
38529;SDS011;24301;54.332;48.386;2023-10-31T03:53:42;11.10;;;7.50;;
38529;SDS011;24301;54.332;48.386;2023-10-31T03:56:09;9.67;;;7.43;;
38529;SDS011;24301;54.332;48.386;2023-10-31T03:58:35;10.23;;;7.60;;
38529;SDS011;24301;54.332;48.386;2023-10-31T04:01:01;12.40;;;8.97;;
38529;SDS011;24301;54.332;48.386;2023-10-31T04:03:28;17.37;;;12.23;;
38529;SDS011;24301;54.332;48.386;2023-10-31T04:05:53;20.67;;;13.90;;
38529;SDS011;24301;54.332;48.386;2023-10-31T04:08:19;20.33;;;14.93;;
38529;SDS011;24301;54.332;48.386;2023-10-31T04:10:45;18.90;;;12.97;;
38529;SDS011;24301;54.332;48.386;2023-10-31T04:13:11;17.37;;;13.20;;
38529;SDS011;24301;54.332;48.386;2023-10-31T04:15:37;15.23;;;11.17;;
38529;SDS011;24301;54.332;48.386;2023-10-31T04:18:03;16.47;;;9.40;;
38529;SDS011;24301;54.332;48.386;2023-10-31T04:20:30;13.73;;;8.70;;
38529;SDS011;24301;54.332;48.386;2023-10-31T04:22:56;12.23;;;8.13;;
38529;SDS011;24301;54.332;48.386;2023-10-31T04:25:22;13.07;;;8.63;;
38529;SDS011;24301;54.332;48.386;2023-10-31T04:27:48;14.77;;;8.50;;
38529;SDS011;24301;54.332;48.386;2023-10-31T04:30:14;12.60;;;8.27;;
38529;SDS011;24301;54.332;48.386;2023-10-31T04:32:40;10.93;;;8.40;;
38529;SDS011;24301;54.332;48.386;2023-10-31T04:35:10;14.03;;;7.77;;
38529;SDS011;24301;54.332;48.386;2023-10-31T04:37:36;12.40;;;7.77;;
38529;SDS011;24301;54.332;48.386;2023-10-31T04:40:02;13.80;;;9.00;;
38529;SDS011;24301;54.332;48.386;2023-10-31T04:42:31;12.87;;;8.63;;
38529;SDS011;24301;54.332;48.386;2023-10-31T04:44:59;14.67;;;10.37;;
38529;SDS011;24301;54.332;48.386;2023-10-31T04:47:24;13.30;;;9.50;;
38529;SDS011;24301;54.332;48.386;2023-10-31T04:49:51;11.60;;;8.67;;
38529;SDS011;24301;54.332;48.386;2023-10-31T04:52:17;11.50;;;9.17;;
38529;SDS011;24301;54.332;48.386;2023-10-31T04:54:45;13.57;;;8.27;;
38529;SDS011;24301;54.332;48.386;2023-10-31T04:57:11;12.20;;;8.53;;
38529;SDS011;24301;54.332;48.386;2023-10-31T04:59:37;12.33;;;8.40;;
38529;SDS011;24301;54.332;48.386;2023-10-31T05:02:03;11.90;;;8.67;;
38529;SDS011;24301;54.332;48.386;2023-10-31T05:04:29;12.63;;;9.00;;
38529;SDS011;24301;54.332;48.386;2023-10-31T05:06:55;14.13;;;9.80;;
38529;SDS011;24301;54.332;48.386;2023-10-31T05:09:21;12.23;;;8.57;;
38529;SDS011;24301;54.332;48.386;2023-10-31T05:11:48;10.57;;;8.03;;
38529;SDS011;24301;54.332;48.386;2023-10-31T05:14:15;14.77;;;9.40;;
38529;SDS011;24301;54.332;48.386;2023-10-31T05:16:42;15.43;;;9.07;;
38529;SDS011;24301;54.332;48.386;2023-10-31T05:19:09;17.40;;;10.03;;
38529;SDS011;24301;54.332;48.386;2023-10-31T05:21:35;22.87;;;13.90;;
38529;SDS011;24301;54.332;48.386;2023-10-31T05:24:01;20.03;;;12.40;;
38529;SDS011;24301;54.332;48.386;2023-10-31T05:26:30;19.57;;;11.60;;
38529;SDS011;24301;54.332;48.386;2023-10-31T05:28:56;14.93;;;9.23;;
38529;SDS011;24301;54.332;48.386;2023-10-31T05:31:23;12.13;;;9.20;;
38529;SDS011;24301;54.332;48.386;2023-10-31T05:33:50;12.57;;;8.50;;
38529;SDS011;24301;54.332;48.386;2023-10-31T05:36:23;12.47;;;7.77;;
38529;SDS011;24301;54.332;48.386;2023-10-31T05:38:50;12.70;;;8.37;;
38529;SDS011;24301;54.332;48.386;2023-10-31T05:41:16;11.13;;;7.87;;
38529;SDS011;24301;54.332;48.386;2023-10-31T05:43:42;16.67;;;9.20;;
38529;SDS011;24301;54.332;48.386;2023-10-31T05:46:08;15.67;;;9.03;;
38529;SDS011;24301;54.332;48.386;2023-10-31T05:48:42;14.93;;;9.27;;
38529;SDS011;24301;54.332;48.386;2023-10-31T05:51:15;16.83;;;10.03;;
38529;SDS011;24301;54.332;48.386;2023-10-31T05:53:43;16.60;;;11.40;;
38529;SDS011;24301;54.332;48.386;2023-10-31T05:56:10;20.00;;;12.60;;
38529;SDS011;24301;54.332;48.386;2023-10-31T05:58:39;24.07;;;12.17;;
38529;SDS011;24301;54.332;48.386;2023-10-31T06:01:06;19.10;;;12.63;;
38529;SDS011;24301;54.332;48.386;2023-10-31T06:03:33;19.67;;;11.73;;
38529;SDS011;24301;54.332;48.386;2023-10-31T06:05:59;18.93;;;12.33;;
38529;SDS011;24301;54.332;48.386;2023-10-31T06:08:25;20.43;;;11.90;;
38529;SDS011;24301;54.332;48.386;2023-10-31T06:10:55;17.07;;;11.47;;
38529;SDS011;24301;54.332;48.386;2023-10-31T06:13:23;18.17;;;12.13;;
38529;SDS011;24301;54.332;48.386;2023-10-31T06:15:51;20.37;;;11.53;;
38529;SDS011;24301;54.332;48.386;2023-10-31T06:18:17;16.63;;;9.70;;
38529;SDS011;24301;54.332;48.386;2023-10-31T06:20:43;14.33;;;10.23;;
38529;SDS011;24301;54.332;48.386;2023-10-31T06:23:10;13.50;;;10.53;;
38529;SDS011;24301;54.332;48.386;2023-10-31T06:25:36;14.93;;;9.60;;
38529;SDS011;24301;54.332;48.386;2023-10-31T06:28:02;16.00;;;9.33;;
38529;SDS011;24301;54.332;48.386;2023-10-31T06:30:28;17.40;;;9.70;;
38529;SDS011;24301;54.332;48.386;2023-10-31T06:32:54;14.80;;;9.83;;
38529;SDS011;24301;54.332;48.386;2023-10-31T06:35:20;15.73;;;10.57;;
38529;SDS011;24301;54.332;48.386;2023-10-31T06:37:50;20.07;;;9.70;;
38529;SDS011;24301;54.332;48.386;2023-10-31T06:40:17;14.83;;;9.53;;
38529;SDS011;24301;54.332;48.386;2023-10-31T06:42:45;12.87;;;9.43;;
38529;SDS011;24301;54.332;48.386;2023-10-31T06:45:12;13.40;;;8.70;;
38529;SDS011;24301;54.332;48.386;2023-10-31T06:47:38;16.37;;;9.40;;
38529;SDS011;24301;54.332;48.386;2023-10-31T06:50:04;11.47;;;8.57;;
38529;SDS011;24301;54.332;48.386;2023-10-31T06:52:34;13.03;;;8.20;;
38529;SDS011;24301;54.332;48.386;2023-10-31T06:55:00;10.97;;;8.20;;
38529;SDS011;24301;54.332;48.386;2023-10-31T06:57:26;10.63;;;7.83;;
38529;SDS011;24301;54.332;48.386;2023-10-31T06:59:52;12.17;;;8.03;;
38529;SDS011;24301;54.332;48.386;2023-10-31T07:02:18;10.20;;;7.77;;
38529;SDS011;24301;54.332;48.386;2023-10-31T07:04:44;10.60;;;7.13;;
38529;SDS011;24301;54.332;48.386;2023-10-31T07:07:11;9.87;;;7.70;;
38529;SDS011;24301;54.332;48.386;2023-10-31T07:09:37;10.87;;;7.77;;
38529;SDS011;24301;54.332;48.386;2023-10-31T07:12:03;9.80;;;6.47;;
38529;SDS011;24301;54.332;48.386;2023-10-31T07:14:29;8.40;;;6.10;;
38529;SDS011;24301;54.332;48.386;2023-10-31T07:16:56;8.17;;;5.73;;
38529;SDS011;24301;54.332;48.386;2023-10-31T07:19:22;6.70;;;5.43;;
38529;SDS011;24301;54.332;48.386;2023-10-31T07:21:48;10.50;;;6.17;;
38529;SDS011;24301;54.332;48.386;2023-10-31T07:24:15;7.30;;;5.37;;
38529;SDS011;24301;54.332;48.386;2023-10-31T07:26:41;7.07;;;5.20;;
38529;SDS011;24301;54.332;48.386;2023-10-31T07:29:06;8.30;;;5.90;;
38529;SDS011;24301;54.332;48.386;2023-10-31T07:31:33;7.07;;;5.60;;
38529;SDS011;24301;54.332;48.386;2023-10-31T07:34:04;7.67;;;5.90;;
38529;SDS011;24301;54.332;48.386;2023-10-31T07:36:31;10.73;;;6.07;;
38529;SDS011;24301;54.332;48.386;2023-10-31T07:39:05;6.18;;;4.88;;
38529;SDS011;24301;54.332;48.386;2023-10-31T07:41:31;7.83;;;5.20;;
38529;SDS011;24301;54.332;48.386;2023-10-31T07:43:57;8.73;;;5.70;;
38529;SDS011;24301;54.332;48.386;2023-10-31T07:46:23;7.40;;;4.67;;
38529;SDS011;24301;54.332;48.386;2023-10-31T07:48:49;10.00;;;5.63;;
38529;SDS011;24301;54.332;48.386;2023-10-31T07:51:18;6.93;;;5.00;;
38529;SDS011;24301;54.332;48.386;2023-10-31T07:53:44;9.00;;;5.07;;
38529;SDS011;24301;54.332;48.386;2023-10-31T07:56:15;8.00;;;5.40;;
38529;SDS011;24301;54.332;48.386;2023-10-31T07:58:42;7.80;;;5.00;;
38529;SDS011;24301;54.332;48.386;2023-10-31T08:01:08;8.63;;;5.63;;
38529;SDS011;24301;54.332;48.386;2023-10-31T08:03:36;7.60;;;5.07;;
38529;SDS011;24301;54.332;48.386;2023-10-31T08:06:04;7.50;;;5.40;;
38529;SDS011;24301;54.332;48.386;2023-10-31T08:08:31;7.07;;;4.67;;
38529;SDS011;24301;54.332;48.386;2023-10-31T08:10:57;7.50;;;5.20;;
38529;SDS011;24301;54.332;48.386;2023-10-31T08:13:24;6.47;;;4.40;;
38529;SDS011;24301;54.332;48.386;2023-10-31T08:15:50;7.73;;;4.97;;
38529;SDS011;24301;54.332;48.386;2023-10-31T08:18:16;6.43;;;4.47;;
38529;SDS011;24301;54.332;48.386;2023-10-31T08:20:43;7.83;;;5.53;;
38529;SDS011;24301;54.332;48.386;2023-10-31T08:23:11;8.63;;;4.40;;
38529;SDS011;24301;54.332;48.386;2023-10-31T08:25:37;5.20;;;3.90;;
38529;SDS011;24301;54.332;48.386;2023-10-31T08:28:03;5.50;;;3.87;;
38529;SDS011;24301;54.332;48.386;2023-10-31T08:30:29;5.50;;;3.40;;
38529;SDS011;24301;54.332;48.386;2023-10-31T08:32:55;7.33;;;3.63;;
38529;SDS011;24301;54.332;48.386;2023-10-31T08:35:21;4.43;;;3.17;;
38529;SDS011;24301;54.332;48.386;2023-10-31T08:37:47;9.27;;;4.03;;
38529;SDS011;24301;54.332;48.386;2023-10-31T08:40:13;6.27;;;3.70;;
38529;SDS011;24301;54.332;48.386;2023-10-31T08:42:39;6.27;;;3.60;;
38529;SDS011;24301;54.332;48.386;2023-10-31T08:45:07;5.40;;;3.83;;
38529;SDS011;24301;54.332;48.386;2023-10-31T08:47:36;6.30;;;3.97;;
38529;SDS011;24301;54.332;48.386;2023-10-31T08:50:05;9.00;;;3.80;;
38529;SDS011;24301;54.332;48.386;2023-10-31T08:52:52;7.17;;;3.70;;
38529;SDS011;24301;54.332;48.386;2023-10-31T08:55:18;5.70;;;3.07;;
38529;SDS011;24301;54.332;48.386;2023-10-31T08:57:44;5.10;;;3.23;;
38529;SDS011;24301;54.332;48.386;2023-10-31T09:00:10;6.17;;;2.97;;
38529;SDS011;24301;54.332;48.386;2023-10-31T09:02:37;5.60;;;2.70;;
38529;SDS011;24301;54.332;48.386;2023-10-31T09:05:51;6.40;;;2.40;;
38529;SDS011;24301;54.332;48.386;2023-10-31T09:08:20;4.17;;;2.73;;
38529;SDS011;24301;54.332;48.386;2023-10-31T09:10:48;4.73;;;2.90;;
38529;SDS011;24301;54.332;48.386;2023-10-31T09:13:14;3.90;;;2.80;;
38529;SDS011;24301;54.332;48.386;2023-10-31T09:15:40;4.07;;;2.57;;
38529;SDS011;24301;54.332;48.386;2023-10-31T09:18:13;2.88;;;2.13;;
38529;SDS011;24301;54.332;48.386;2023-10-31T09:20:39;3.67;;;2.30;;
38529;SDS011;24301;54.332;48.386;2023-10-31T09:23:05;5.43;;;3.07;;
38529;SDS011;24301;54.332;48.386;2023-10-31T09:25:31;2.80;;;2.20;;
38529;SDS011;24301;54.332;48.386;2023-10-31T09:28:00;3.17;;;2.60;;
38529;SDS011;24301;54.332;48.386;2023-10-31T09:30:26;3.50;;;2.40;;
38529;SDS011;24301;54.332;48.386;2023-10-31T09:32:52;3.83;;;2.57;;
38529;SDS011;24301;54.332;48.386;2023-10-31T09:35:20;2.70;;;2.27;;
38529;SDS011;24301;54.332;48.386;2023-10-31T09:37:52;2.95;;;2.45;;
38529;SDS011;24301;54.332;48.386;2023-10-31T09:40:18;4.17;;;2.60;;
38529;SDS011;24301;54.332;48.386;2023-10-31T09:42:55;3.13;;;2.10;;
38529;SDS011;24301;54.332;48.386;2023-10-31T09:45:27;2.53;;;2.00;;
38529;SDS011;24301;54.332;48.386;2023-10-31T09:47:56;2.53;;;2.00;;
38529;SDS011;24301;54.332;48.386;2023-10-31T09:50:41;4.20;;;2.33;;
38529;SDS011;24301;54.332;48.386;2023-10-31T09:53:29;2.27;;;1.93;;
38529;SDS011;24301;54.332;48.386;2023-10-31T09:55:58;2.77;;;2.27;;
38529;SDS011;24301;54.332;48.386;2023-10-31T09:58:30;3.00;;;1.83;;
38529;SDS011;24301;54.332;48.386;2023-10-31T10:00:55;1.87;;;1.60;;
38529;SDS011;24301;54.332;48.386;2023-10-31T10:03:25;3.77;;;1.60;;
38529;SDS011;24301;54.332;48.386;2023-10-31T10:06:01;2.33;;;1.40;;
38529;SDS011;24301;54.332;48.386;2023-10-31T10:08:28;2.13;;;1.50;;
38529;SDS011;24301;54.332;48.386;2023-10-31T10:10:56;2.33;;;1.67;;
38529;SDS011;24301;54.332;48.386;2023-10-31T10:13:23;2.50;;;1.50;;
38529;SDS011;24301;54.332;48.386;2023-10-31T10:15:50;2.37;;;1.50;;
38529;SDS011;24301;54.332;48.386;2023-10-31T10:18:24;2.27;;;1.70;;
38529;SDS011;24301;54.332;48.386;2023-10-31T10:20:57;3.10;;;2.22;;
38529;SDS011;24301;54.332;48.386;2023-10-31T10:23:27;2.65;;;1.80;;
38529;SDS011;24301;54.332;48.386;2023-10-31T10:26:01;3.17;;;1.87;;
38529;SDS011;24301;54.332;48.386;2023-10-31T10:28:35;2.83;;;1.70;;
38529;SDS011;24301;54.332;48.386;2023-10-31T10:31:06;3.10;;;1.50;;
38529;SDS011;24301;54.332;48.386;2023-10-31T10:33:33;2.27;;;1.30;;
38529;SDS011;24301;54.332;48.386;2023-10-31T10:36:03;3.00;;;1.57;;
38529;SDS011;24301;54.332;48.386;2023-10-31T10:38:31;2.13;;;1.93;;
38529;SDS011;24301;54.332;48.386;2023-10-31T10:41:01;4.57;;;1.73;;
38529;SDS011;24301;54.332;48.386;2023-10-31T10:43:29;4.77;;;2.00;;
38529;SDS011;24301;54.332;48.386;2023-10-31T10:46:20;4.07;;;2.20;;
38529;SDS011;24301;54.332;48.386;2023-10-31T10:48:50;6.63;;;2.23;;
38529;SDS011;24301;54.332;48.386;2023-10-31T10:51:29;1.73;;;1.48;;
38529;SDS011;24301;54.332;48.386;2023-10-31T10:54:23;2.80;;;1.60;;
38529;SDS011;24301;54.332;48.386;2023-10-31T10:56:59;1.90;;;1.50;;
38529;SDS011;24301;54.332;48.386;2023-10-31T10:59:50;1.70;;;1.43;;
38529;SDS011;24301;54.332;48.386;2023-10-31T11:02:22;1.83;;;1.13;;
38529;SDS011;24301;54.332;48.386;2023-10-31T11:04:48;1.90;;;1.37;;
38529;SDS011;24301;54.332;48.386;2023-10-31T11:07:15;1.80;;;1.20;;
38529;SDS011;24301;54.332;48.386;2023-10-31T11:09:44;1.93;;;1.20;;
38529;SDS011;24301;54.332;48.386;2023-10-31T11:12:30;1.50;;;1.40;;
38529;SDS011;24301;54.332;48.386;2023-10-31T11:14:58;1.97;;;1.37;;
38529;SDS011;24301;54.332;48.386;2023-10-31T11:17:39;1.50;;;1.10;;
38529;SDS011;24301;54.332;48.386;2023-10-31T11:20:23;1.53;;;1.10;;
38529;SDS011;24301;54.332;48.386;2023-10-31T11:22:56;1.60;;;1.27;;
38529;SDS011;24301;54.332;48.386;2023-10-31T11:25:28;2.47;;;1.57;;
38529;SDS011;24301;54.332;48.386;2023-10-31T11:28:39;2.27;;;1.10;;
38529;SDS011;24301;54.332;48.386;2023-10-31T11:31:08;2.47;;;1.10;;
38529;SDS011;24301;54.332;48.386;2023-10-31T11:33:38;2.77;;;1.40;;
38529;SDS011;24301;54.332;48.386;2023-10-31T11:36:05;3.47;;;1.13;;
38529;SDS011;24301;54.332;48.386;2023-10-31T11:38:34;2.70;;;1.33;;
38529;SDS011;24301;54.332;48.386;2023-10-31T11:41:02;2.33;;;1.67;;
38529;SDS011;24301;54.332;48.386;2023-10-31T11:46:43;3.37;;;1.83;;
38529;SDS011;24301;54.332;48.386;2023-10-31T11:49:02;5.20;;;2.43;;
38529;SDS011;24301;54.332;48.386;2023-10-31T11:51:30;1.93;;;1.47;;
38529;SDS011;24301;54.332;48.386;2023-10-31T11:53:56;2.03;;;1.43;;
38529;SDS011;24301;54.332;48.386;2023-10-31T11:56:24;3.57;;;1.47;;
38529;SDS011;24301;54.332;48.386;2023-10-31T11:59:03;4.03;;;1.90;;
38529;SDS011;24301;54.332;48.386;2023-10-31T12:01:44;4.17;;;1.80;;
38529;SDS011;24301;54.332;48.386;2023-10-31T12:04:22;3.13;;;1.60;;
38529;SDS011;24301;54.332;48.386;2023-10-31T12:06:56;3.03;;;1.70;;
38529;SDS011;24301;54.332;48.386;2023-10-31T12:09:24;2.17;;;1.70;;
38529;SDS011;24301;54.332;48.386;2023-10-31T12:11:50;1.80;;;1.50;;
38529;SDS011;24301;54.332;48.386;2023-10-31T12:14:18;2.43;;;1.83;;
38529;SDS011;24301;54.332;48.386;2023-10-31T12:16:48;3.83;;;2.20;;
38529;SDS011;24301;54.332;48.386;2023-10-31T12:19:14;4.03;;;1.97;;
38529;SDS011;24301;54.332;48.386;2023-10-31T12:21:43;3.13;;;1.93;;
38529;SDS011;24301;54.332;48.386;2023-10-31T12:24:23;2.93;;;2.00;;
38529;SDS011;24301;54.332;48.386;2023-10-31T12:27:18;3.53;;;2.00;;
38529;SDS011;24301;54.332;48.386;2023-10-31T12:29:44;4.87;;;2.20;;
38529;SDS011;24301;54.332;48.386;2023-10-31T12:32:11;2.57;;;1.80;;
38529;SDS011;24301;54.332;48.386;2023-10-31T12:34:44;2.83;;;1.90;;
38529;SDS011;24301;54.332;48.386;2023-10-31T12:37:29;4.10;;;2.10;;
38529;SDS011;24301;54.332;48.386;2023-10-31T12:40:09;2.60;;;1.73;;
38529;SDS011;24301;54.332;48.386;2023-10-31T12:42:36;3.63;;;2.27;;
38529;SDS011;24301;54.332;48.386;2023-10-31T12:45:06;3.87;;;1.87;;
38529;SDS011;24301;54.332;48.386;2023-10-31T12:47:35;4.03;;;1.90;;
38529;SDS011;24301;54.332;48.386;2023-10-31T12:50:14;5.03;;;2.17;;
38529;SDS011;24301;54.332;48.386;2023-10-31T12:52:53;3.80;;;2.20;;
38529;SDS011;24301;54.332;48.386;2023-10-31T12:55:24;4.87;;;2.97;;
38529;SDS011;24301;54.332;48.386;2023-10-31T12:57:57;4.60;;;2.77;;
38529;SDS011;24301;54.332;48.386;2023-10-31T13:03:22;4.60;;;3.07;;
38529;SDS011;24301;54.332;48.386;2023-10-31T13:08:45;4.30;;;2.30;;
38529;SDS011;24301;54.332;48.386;2023-10-31T13:11:13;2.67;;;2.17;;
38529;SDS011;24301;54.332;48.386;2023-10-31T13:13:39;4.23;;;2.50;;
38529;SDS011;24301;54.332;48.386;2023-10-31T13:16:05;4.07;;;2.10;;
38529;SDS011;24301;54.332;48.386;2023-10-31T13:18:31;4.30;;;2.70;;
38529;SDS011;24301;54.332;48.386;2023-10-31T13:23:53;6.37;;;2.93;;
38529;SDS011;24301;54.332;48.386;2023-10-31T13:26:19;4.77;;;2.70;;
38529;SDS011;24301;54.332;48.386;2023-10-31T13:29:05;5.60;;;3.27;;
38529;SDS011;24301;54.332;48.386;2023-10-31T13:31:31;5.60;;;3.30;;
38529;SDS011;24301;54.332;48.386;2023-10-31T13:33:57;7.17;;;4.27;;
38529;SDS011;24301;54.332;48.386;2023-10-31T13:36:23;8.00;;;4.40;;
38529;SDS011;24301;54.332;48.386;2023-10-31T13:38:49;7.83;;;4.53;;
38529;SDS011;24301;54.332;48.386;2023-10-31T13:41:15;7.77;;;4.57;;
38529;SDS011;24301;54.332;48.386;2023-10-31T13:43:58;7.37;;;4.50;;
38529;SDS011;24301;54.332;48.386;2023-10-31T13:46:24;6.83;;;4.60;;
38529;SDS011;24301;54.332;48.386;2023-10-31T13:48:50;6.67;;;4.70;;
38529;SDS011;24301;54.332;48.386;2023-10-31T13:51:16;6.83;;;4.60;;
38529;SDS011;24301;54.332;48.386;2023-10-31T13:53:42;7.03;;;4.50;;
38529;SDS011;24301;54.332;48.386;2023-10-31T13:56:09;5.37;;;3.90;;
38529;SDS011;24301;54.332;48.386;2023-10-31T13:58:35;5.17;;;3.50;;
38529;SDS011;24301;54.332;48.386;2023-10-31T14:01:01;6.03;;;4.33;;
38529;SDS011;24301;54.332;48.386;2023-10-31T14:03:30;4.40;;;3.47;;
38529;SDS011;24301;54.332;48.386;2023-10-31T14:05:56;5.40;;;3.57;;
38529;SDS011;24301;54.332;48.386;2023-10-31T14:08:25;5.00;;;3.27;;
38529;SDS011;24301;54.332;48.386;2023-10-31T14:10:51;4.97;;;3.20;;
38529;SDS011;24301;54.332;48.386;2023-10-31T14:13:17;10.67;;;4.20;;
38529;SDS011;24301;54.332;48.386;2023-10-31T14:18:36;5.63;;;3.37;;
38529;SDS011;24301;54.332;48.386;2023-10-31T14:21:13;5.83;;;3.73;;
38529;SDS011;24301;54.332;48.386;2023-10-31T14:23:39;5.57;;;3.50;;
38529;SDS011;24301;54.332;48.386;2023-10-31T14:28:58;4.13;;;3.00;;
38529;SDS011;24301;54.332;48.386;2023-10-31T14:31:26;6.53;;;3.10;;
38529;SDS011;24301;54.332;48.386;2023-10-31T14:33:52;5.20;;;3.37;;
38529;SDS011;24301;54.332;48.386;2023-10-31T14:36:18;3.33;;;2.80;;
38529;SDS011;24301;54.332;48.386;2023-10-31T14:38:44;4.70;;;3.00;;
38529;SDS011;24301;54.332;48.386;2023-10-31T14:41:10;5.43;;;2.93;;
38529;SDS011;24301;54.332;48.386;2023-10-31T14:46:32;3.97;;;3.03;;
38529;SDS011;24301;54.332;48.386;2023-10-31T14:48:58;3.53;;;2.63;;
38529;SDS011;24301;54.332;48.386;2023-10-31T14:51:24;5.43;;;3.00;;
38529;SDS011;24301;54.332;48.386;2023-10-31T14:53:51;4.50;;;3.00;;
38529;SDS011;24301;54.332;48.386;2023-10-31T14:56:17;5.20;;;3.03;;
38529;SDS011;24301;54.332;48.386;2023-10-31T14:58:43;4.07;;;2.57;;
38529;SDS011;24301;54.332;48.386;2023-10-31T15:06:33;3.80;;;2.50;;